createdAt,value
2023-07-15T00:00:19.306Z,18597.39
2023-07-15T00:01:22.245Z,18177.25
2023-07-15T00:02:25.598Z,18022.31
2023-07-15T00:03:28.604Z,18600.37
2023-07-15T00:04:31.529Z,19345.41
2023-07-15T00:05:34.294Z,18798.04
2023-07-15T00:06:37.310Z,17921.01
2023-07-15T00:07:40.169Z,18018.34
2023-07-15T00:08:43.135Z,18840.75
2023-07-15T00:09:46.006Z,18682.81
2023-07-15T00:10:49.088Z,19517.29
2023-07-15T00:11:51.990Z,18633.15
2023-07-15T00:12:54.737Z,18171.29
2023-07-15T00:13:57.412Z,18644.07
2023-07-15T00:15:00.379Z,17970.67
2023-07-15T00:16:03.194Z,17636.99
2023-07-15T00:17:05.935Z,19005.65
2023-07-15T00:18:08.940Z,17410.58
2023-07-15T00:19:11.961Z,18222.93
2023-07-15T00:20:15.533Z,17649.90
2023-07-15T00:21:18.936Z,17356.96
2023-07-15T00:22:21.843Z,15991.86
2023-07-15T00:23:24.910Z,15189.89
2023-07-15T00:24:27.863Z,16090.13
2023-07-15T00:25:30.948Z,16342.27
2023-07-15T00:26:34.034Z,16743.35
2023-07-15T00:27:37.003Z,17176.24
2023-07-15T00:28:39.880Z,17316.25
2023-07-15T00:29:43.273Z,17936.90
2023-07-15T00:30:46.654Z,17314.26
2023-07-15T00:31:50.062Z,16534.86
2023-07-15T00:32:53.053Z,16969.72
2023-07-15T00:33:56.432Z,16632.16
2023-07-15T00:34:59.586Z,17174.26
2023-07-15T00:36:02.767Z,17441.36
2023-07-15T00:37:06.056Z,18175.26
2023-07-15T00:38:09.232Z,18346.09
2023-07-15T00:39:12.338Z,17770.06
2023-07-15T00:40:16.111Z,16796.96
2023-07-15T00:41:19.291Z,17249.72
2023-07-15T00:42:22.474Z,16914.12
2023-07-15T00:43:25.762Z,17099.79
2023-07-15T00:44:28.751Z,17092.84
2023-07-15T00:45:31.857Z,17670.75
2023-07-15T00:46:34.996Z,19043.40
2023-07-15T00:47:38.140Z,18652.02
2023-07-15T00:48:41.068Z,18133.55
2023-07-15T00:49:44.050Z,17951.80
2023-07-15T00:50:47.033Z,19716.00
2023-07-15T00:51:50.419Z,18465.28
2023-07-15T00:52:53.091Z,18476.21
2023-07-15T00:53:55.963Z,19751.77
2023-07-15T00:54:58.942Z,19217.25
2023-07-15T00:56:01.832Z,19224.21
2023-07-15T00:57:04.795Z,19002.67
2023-07-15T00:58:07.658Z,18214.99
2023-07-15T00:59:10.540Z,19068.24
2023-07-15T01:00:13.409Z,18550.70
2023-07-15T01:01:16.441Z,18854.66
2023-07-15T01:02:19.529Z,17969.68
2023-07-15T01:03:22.682Z,19191.42
2023-07-15T01:04:25.735Z,18169.30
2023-07-15T01:05:28.615Z,18907.31
2023-07-15T01:06:31.476Z,18054.09
2023-07-15T01:07:34.568Z,18775.19
2023-07-15T01:08:37.539Z,19087.11
2023-07-15T01:09:40.565Z,18910.29
2023-07-15T01:10:43.487Z,18584.48
2023-07-15T01:11:46.261Z,18397.74
2023-07-15T01:12:49.245Z,18567.59
2023-07-15T01:13:51.809Z,18580.50
2023-07-15T01:14:54.481Z,18229.89
2023-07-15T01:15:57.464Z,19093.07
2023-07-15T01:17:00.332Z,18207.04
2023-07-15T01:18:03.413Z,18572.55
2023-07-15T01:19:06.299Z,18570.57
2023-07-15T01:20:09.159Z,18209.03
2023-07-15T01:21:12.047Z,18036.22
2023-07-15T01:22:15.093Z,18244.79
2023-07-15T01:23:18.474Z,18213.00
2023-07-15T01:24:21.655Z,16255.90
2023-07-15T01:25:24.966Z,16131.82
2023-07-15T01:26:28.030Z,16695.70
2023-07-15T01:27:31.106Z,15876.71
2023-07-15T01:28:35.214Z,19116.91
2023-07-15T01:29:38.387Z,19468.61
2023-07-15T01:30:41.770Z,18068.00
2023-07-15T01:31:45.130Z,17313.27
2023-07-15T01:32:48.204Z,18794.07
2023-07-15T01:33:51.325Z,17656.85
2023-07-15T01:34:54.305Z,17320.22
2023-07-15T01:35:57.277Z,16630.17
2023-07-15T01:37:00.780Z,18757.31
2023-07-15T01:38:03.841Z,19820.33
2023-07-15T01:39:07.331Z,18765.26
2023-07-15T01:40:10.633Z,17659.83
2023-07-15T01:41:13.265Z,20170.09
2023-07-15T01:42:16.370Z,18963.93
2023-07-15T01:43:19.445Z,17468.18
2023-07-15T01:44:22.522Z,18395.75
2023-07-15T01:45:25.912Z,19477.55
2023-07-15T01:46:29.011Z,18193.14
2023-07-15T01:47:35.278Z,19315.61
2023-07-15T01:48:38.429Z,19621.61
2023-07-15T01:49:41.928Z,18022.31
2023-07-15T01:50:45.099Z,19494.44
2023-07-15T01:51:48.190Z,19119.89
2023-07-15T01:52:54.121Z,19444.76
2023-07-15T01:53:57.370Z,18542.76
2023-07-15T01:55:00.800Z,18331.20
2023-07-15T01:56:03.876Z,18199.10
2023-07-15T01:57:06.743Z,17844.54
2023-07-15T01:58:09.420Z,18572.55
2023-07-15T01:59:12.499Z,17555.56
2023-07-15T02:00:15.371Z,16766.18
2023-07-15T02:01:18.145Z,17965.70
2023-07-15T02:02:21.238Z,19949.50
2023-07-15T02:03:24.173Z,19453.70
2023-07-15T02:04:26.966Z,17795.88
2023-07-15T02:05:29.944Z,18346.09
2023-07-15T02:06:33.013Z,16764.20
2023-07-15T02:07:35.696Z,18073.96
2023-07-15T02:08:38.674Z,18316.30
2023-07-15T02:09:41.559Z,18463.30
2023-07-15T02:10:44.539Z,21410.42
2023-07-15T02:11:47.509Z,22859.96
2023-07-15T02:12:50.601Z,23005.14
2023-07-15T02:13:53.666Z,25947.75
2023-07-15T02:14:56.429Z,24399.57
2023-07-15T02:15:59.530Z,25920.88
2023-07-15T02:17:02.467Z,25326.81
2023-07-15T02:18:05.304Z,26203.52
2023-07-15T02:19:08.244Z,27827.08
2023-07-15T02:20:11.210Z,26031.34
2023-07-15T02:21:14.402Z,27520.43
2023-07-15T02:22:17.488Z,26906.21
2023-07-15T02:23:20.254Z,27795.22
2023-07-15T02:24:22.933Z,27938.59
2023-07-15T02:25:25.811Z,28369.75
2023-07-15T02:26:28.677Z,30633.82
2023-07-15T02:27:31.349Z,29163.47
2023-07-15T02:28:34.426Z,29127.61
2023-07-15T02:29:37.619Z,32271.19
2023-07-15T02:30:40.566Z,32850.36
2023-07-15T02:31:43.882Z,30895.88
2023-07-15T02:32:46.982Z,29423.43
2023-07-15T02:33:50.018Z,31724.00
2023-07-15T02:34:53.414Z,32830.43
2023-07-15T02:35:56.504Z,32722.76
2023-07-15T02:36:59.663Z,32120.68
2023-07-15T02:38:02.748Z,34538.52
2023-07-15T02:39:05.929Z,34742.99
2023-07-15T02:40:09.117Z,34330.08
2023-07-15T02:41:12.193Z,36409.01
2023-07-15T02:42:15.472Z,36098.70
2023-07-15T02:43:18.450Z,35488.12
2023-07-15T02:44:21.641Z,35700.62
2023-07-15T02:45:24.725Z,35732.54
2023-07-15T02:46:27.519Z,37496.80
2023-07-15T02:47:30.580Z,38405.18
2023-07-15T02:48:33.241Z,37720.38
2023-07-15T02:49:35.922Z,38346.28
2023-07-15T02:50:38.876Z,37863.12
2023-07-15T02:51:42.071Z,37469.85
2023-07-15T02:52:45.143Z,38195.54
2023-07-15T02:53:48.229Z,39222.91
2023-07-15T02:54:51.197Z,39126.05
2023-07-15T02:55:54.379Z,39086.11
2023-07-15T02:56:57.662Z,39679.27
2023-07-15T02:58:00.949Z,39316.77
2023-07-15T02:59:04.227Z,39016.21
2023-07-15T03:00:07.418Z,39574.41
2023-07-15T03:01:10.505Z,39467.56
2023-07-15T03:02:13.650Z,39506.51
2023-07-15T03:03:16.864Z,39335.75
2023-07-15T03:04:19.948Z,38040.81
2023-07-15T03:05:23.181Z,39541.46
2023-07-15T03:06:26.321Z,40457.31
2023-07-15T03:07:29.378Z,40635.11
2023-07-15T03:08:32.367Z,39894.99
2023-07-15T03:09:35.336Z,41069.66
2023-07-15T03:10:38.715Z,40900.82
2023-07-15T03:11:43.033Z,41680.10
2023-07-15T03:12:46.221Z,42330.62
2023-07-15T03:13:49.401Z,41767.03
2023-07-15T03:14:52.800Z,42610.44
2023-07-15T03:15:56.064Z,43580.98
2023-07-15T03:16:59.094Z,43773.92
2023-07-15T03:18:02.415Z,44262.81
2023-07-15T03:19:05.821Z,44377.79
2023-07-15T03:20:09.522Z,44880.75
2023-07-15T03:21:12.591Z,45183.75
2023-07-15T03:22:15.797Z,46025.89
2023-07-15T03:23:18.957Z,46553.07
2023-07-15T03:24:22.249Z,46777.17
2023-07-15T03:25:25.433Z,46795.18
2023-07-15T03:26:28.514Z,46935.25
2023-07-15T03:27:31.574Z,47607.64
2023-07-15T03:28:34.873Z,47680.69
2023-07-15T03:29:38.055Z,47905.86
2023-07-15T03:30:41.014Z,48479.33
2023-07-15T03:31:44.153Z,48658.49
2023-07-15T03:32:47.021Z,48647.48
2023-07-15T03:33:49.863Z,48905.73
2023-07-15T03:34:53.246Z,48903.73
2023-07-15T03:35:56.018Z,48907.73
2023-07-15T03:36:58.793Z,48988.82
2023-07-15T03:38:01.762Z,49093.93
2023-07-15T03:39:04.530Z,49163.00
2023-07-15T03:40:07.509Z,49423.29
2023-07-15T03:41:10.383Z,49717.63
2023-07-15T03:42:13.170Z,49774.70
2023-07-15T03:43:15.833Z,49662.56
2023-07-15T03:44:18.696Z,49866.81
2023-07-15T03:45:21.470Z,49922.88
2023-07-15T03:46:24.300Z,49950.92
2023-07-15T03:47:27.274Z,50465.60
2023-07-15T03:48:30.027Z,50258.32
2023-07-15T03:49:32.872Z,50669.89
2023-07-15T03:50:35.741Z,50491.64
2023-07-15T03:51:38.515Z,50566.75
2023-07-15T03:52:41.200Z,50720.97
2023-07-15T03:53:44.158Z,50768.04
2023-07-15T03:54:46.937Z,50970.34
2023-07-15T03:55:50.165Z,51000.39
2023-07-15T03:56:53.297Z,51055.47
2023-07-15T03:57:56.486Z,50986.36
2023-07-15T03:58:59.674Z,51141.61
2023-07-15T04:00:02.961Z,51312.87
2023-07-15T04:01:06.035Z,51254.78
2023-07-15T04:02:08.797Z,51330.91
2023-07-15T04:03:11.975Z,51534.24
2023-07-15T04:04:15.131Z,51664.46
2023-07-15T04:05:18.158Z,51579.32
2023-07-15T04:06:21.229Z,51602.36
2023-07-15T04:07:24.298Z,51681.49
2023-07-15T04:08:27.385Z,51649.43
2023-07-15T04:09:30.475Z,51805.70
2023-07-15T04:10:33.438Z,51804.70
2023-07-15T04:11:36.525Z,51886.84
2023-07-15T04:12:39.802Z,51943.95
2023-07-15T04:13:42.774Z,51927.91
2023-07-15T04:14:45.748Z,51970.99
2023-07-15T04:15:48.965Z,52008.06
2023-07-15T04:16:52.123Z,52014.07
2023-07-15T04:17:58.185Z,52041.12
2023-07-15T04:19:01.455Z,52111.24
2023-07-15T04:20:04.552Z,52097.22
2023-07-15T04:21:07.910Z,52172.36
2023-07-15T04:22:11.108Z,52258.51
2023-07-15T04:23:13.947Z,52176.36
2023-07-15T04:24:16.856Z,52255.51
2023-07-15T04:25:19.724Z,52289.57
2023-07-15T04:26:22.609Z,52255.51
2023-07-15T04:27:25.465Z,52348.68
2023-07-15T04:28:28.261Z,52319.62
2023-07-15T04:29:31.737Z,52350.68
2023-07-15T04:30:34.399Z,52326.64
2023-07-15T04:31:37.609Z,52354.69
2023-07-15T04:32:40.585Z,52405.79
2023-07-15T04:33:43.537Z,52394.77
2023-07-15T04:34:46.618Z,52485.94
2023-07-15T04:35:49.716Z,52503.97
2023-07-15T04:36:53.005Z,52480.93
2023-07-15T04:37:56.164Z,52511.99
2023-07-15T04:38:59.247Z,52494.96
2023-07-15T04:40:02.132Z,52573.11
2023-07-15T04:41:08.368Z,52567.09
2023-07-15T04:42:11.568Z,52465.90
2023-07-15T04:43:14.732Z,52498.96
2023-07-15T04:44:17.928Z,52559.08
2023-07-15T04:45:20.801Z,52555.07
2023-07-15T04:46:23.957Z,52572.11
2023-07-15T04:47:27.073Z,52577.11
2023-07-15T04:48:30.250Z,52574.11
2023-07-15T04:49:33.208Z,52507.98
2023-07-15T04:50:35.993Z,52529.02
2023-07-15T04:51:38.861Z,52564.09
2023-07-15T04:52:41.748Z,52597.15
2023-07-15T04:53:44.932Z,52576.11
2023-07-15T04:54:47.812Z,52622.20
2023-07-15T04:55:50.660Z,52546.05
2023-07-15T04:56:53.334Z,52592.14
2023-07-15T04:57:56.108Z,52669.29
2023-07-15T04:58:59.102Z,52612.18
2023-07-15T05:00:04.652Z,52689.33
2023-07-15T05:01:06.201Z,52688.33
2023-07-15T05:02:09.052Z,52696.35
2023-07-15T05:03:11.952Z,52699.35
2023-07-15T05:04:15.003Z,52733.42
2023-07-15T05:05:17.760Z,52668.29
2023-07-15T05:06:20.738Z,52688.33
2023-07-15T05:07:23.515Z,52643.24
2023-07-15T05:08:26.399Z,52657.27
2023-07-15T05:09:29.589Z,52601.16
2023-07-15T05:10:32.343Z,52625.21
2023-07-15T05:11:35.128Z,52610.18
2023-07-15T05:12:37.813Z,52493.95
2023-07-15T05:13:40.684Z,52530.02
2023-07-15T05:14:43.844Z,52537.04
2023-07-15T05:15:46.833Z,52484.94
2023-07-15T05:16:51.330Z,52456.88
2023-07-15T05:17:54.270Z,52361.70
2023-07-15T05:18:57.505Z,52336.66
2023-07-15T05:20:00.687Z,52389.76
2023-07-15T05:21:03.448Z,52396.77
2023-07-15T05:22:06.214Z,52415.80
2023-07-15T05:23:09.088Z,52446.86
2023-07-15T05:24:11.857Z,52458.89
2023-07-15T05:25:15.283Z,52459.89
2023-07-15T05:26:18.046Z,52499.96
2023-07-15T05:27:20.690Z,52447.87
2023-07-15T05:28:23.480Z,52531.03
2023-07-15T05:29:26.139Z,52521.01
2023-07-15T05:30:28.901Z,52472.91
2023-07-15T05:31:33.009Z,52492.95
2023-07-15T05:32:36.168Z,52472.91
2023-07-15T05:33:38.858Z,52449.87
2023-07-15T05:34:41.643Z,52480.93
2023-07-15T05:35:44.507Z,52392.76
2023-07-15T05:36:47.292Z,52421.82
2023-07-15T05:37:50.186Z,52438.85
2023-07-15T05:38:53.562Z,52363.71
2023-07-15T05:39:56.733Z,52394.77
2023-07-15T05:40:59.802Z,52364.71
2023-07-15T05:42:02.914Z,52384.75
2023-07-15T05:43:05.956Z,52345.68
2023-07-15T05:44:08.836Z,52388.75
2023-07-15T05:45:11.941Z,52345.68
2023-07-15T05:46:14.993Z,52342.67
2023-07-15T05:47:20.241Z,52316.62
2023-07-15T05:48:22.818Z,52343.67
2023-07-15T05:49:25.977Z,52294.58
2023-07-15T05:50:28.950Z,52270.54
2023-07-15T05:51:32.228Z,52283.56
2023-07-15T05:52:35.207Z,52214.43
2023-07-15T05:53:38.302Z,52259.52
2023-07-15T05:54:41.270Z,52243.48
2023-07-15T05:55:44.246Z,52257.51
2023-07-15T05:56:47.449Z,52190.39
2023-07-15T05:57:50.198Z,52208.42
2023-07-15T05:58:53.402Z,52236.47
2023-07-15T05:59:56.154Z,52219.44
2023-07-15T06:00:59.202Z,52209.42
2023-07-15T06:02:02.330Z,52209.42
2023-07-15T06:03:05.165Z,52218.44
2023-07-15T06:04:08.121Z,52258.51
2023-07-15T06:05:10.834Z,52234.47
2023-07-15T06:06:13.536Z,52264.52
2023-07-15T06:07:16.788Z,52262.52
2023-07-15T06:08:19.897Z,52261.52
2023-07-15T06:09:22.943Z,52254.50
2023-07-15T06:10:26.142Z,52331.65
2023-07-15T06:11:29.210Z,52283.56
2023-07-15T06:12:32.393Z,52323.63
2023-07-15T06:13:35.480Z,52339.66
2023-07-15T06:14:38.445Z,52323.63
2023-07-15T06:15:41.834Z,52404.79
2023-07-15T06:16:45.104Z,52305.60
2023-07-15T06:17:48.349Z,52356.70
2023-07-15T06:18:51.490Z,52333.65
2023-07-15T06:19:54.461Z,52407.79
2023-07-15T06:20:57.550Z,52358.70
2023-07-15T06:22:01.995Z,52323.63
2023-07-15T06:23:05.417Z,52266.53
2023-07-15T06:24:08.429Z,52235.47
2023-07-15T06:25:11.489Z,52296.58
2023-07-15T06:26:14.868Z,52189.39
2023-07-15T06:27:18.478Z,52145.30
2023-07-15T06:28:21.559Z,52040.11
2023-07-15T06:29:24.530Z,52043.12
2023-07-15T06:30:27.562Z,52040.11
2023-07-15T06:31:30.578Z,52093.21
2023-07-15T06:32:33.519Z,52090.20
2023-07-15T06:33:36.761Z,52070.17
2023-07-15T06:34:39.924Z,52034.11
2023-07-15T06:35:43.316Z,51979.00
2023-07-15T06:36:46.392Z,52004.05
2023-07-15T06:37:49.407Z,51953.96
2023-07-15T06:38:52.454Z,51981.01
2023-07-15T06:39:55.430Z,51629.40
2023-07-15T06:40:58.322Z,51860.80
2023-07-15T06:42:01.486Z,51821.73
2023-07-15T06:43:04.457Z,51806.70
2023-07-15T06:44:07.642Z,51784.66
2023-07-15T06:45:10.687Z,51723.56
2023-07-15T06:46:13.660Z,51667.46
2023-07-15T06:47:16.796Z,51553.27
2023-07-15T06:48:19.561Z,51564.29
2023-07-15T06:49:22.533Z,51574.31
2023-07-15T06:50:25.298Z,51582.32
2023-07-15T06:51:28.065Z,51405.03
2023-07-15T06:52:30.837Z,51493.17
2023-07-15T06:53:33.633Z,51376.98
2023-07-15T06:54:36.797Z,51395.01
2023-07-15T06:55:39.590Z,51292.84
2023-07-15T06:56:42.456Z,51287.84
2023-07-15T06:57:45.739Z,51184.67
2023-07-15T06:58:48.617Z,51124.58
2023-07-15T06:59:51.699Z,51142.61
2023-07-15T07:00:54.764Z,51030.43
2023-07-15T07:01:57.842Z,50932.28
2023-07-15T07:03:00.888Z,50786.06
2023-07-15T07:04:03.803Z,50674.90
2023-07-15T07:05:07.291Z,50565.74
2023-07-15T07:06:10.218Z,50486.63
2023-07-15T07:07:13.337Z,50591.78
2023-07-15T07:08:16.212Z,50609.80
2023-07-15T07:09:18.984Z,50475.62
2023-07-15T07:10:21.873Z,50493.64
2023-07-15T07:11:24.641Z,50474.61
2023-07-15T07:12:27.406Z,50386.49
2023-07-15T07:13:30.182Z,50314.39
2023-07-15T07:14:34.995Z,50118.13
2023-07-15T07:15:37.467Z,50193.23
2023-07-15T07:16:40.543Z,50133.15
2023-07-15T07:17:43.473Z,50037.03
2023-07-15T07:18:46.439Z,50117.13
2023-07-15T07:19:49.165Z,50107.12
2023-07-15T07:20:52.555Z,50037.03
2023-07-15T07:21:55.635Z,49945.91
2023-07-15T07:22:58.459Z,49595.48
2023-07-15T07:24:01.195Z,49600.49
2023-07-15T07:25:03.869Z,49594.48
2023-07-15T07:26:06.929Z,49443.31
2023-07-15T07:27:09.693Z,49337.19
2023-07-15T07:28:12.478Z,49380.23
2023-07-15T07:29:15.264Z,49381.24
2023-07-15T07:30:18.012Z,49238.08
2023-07-15T07:31:20.983Z,49241.08
2023-07-15T07:32:24.028Z,49253.10
2023-07-15T07:33:26.744Z,49033.86
2023-07-15T07:34:29.323Z,49155.99
2023-07-15T07:35:32.184Z,49105.94
2023-07-15T07:36:35.071Z,48943.77
2023-07-15T07:37:37.937Z,49118.95
2023-07-15T07:38:40.810Z,48979.80
2023-07-15T07:39:44.249Z,49097.93
2023-07-15T07:40:46.967Z,49099.93
2023-07-15T07:41:50.757Z,48976.80
2023-07-15T07:42:53.635Z,49023.85
2023-07-15T07:43:56.415Z,49108.94
2023-07-15T07:44:59.089Z,48871.70
2023-07-15T07:46:01.868Z,48861.69
2023-07-15T07:47:04.734Z,48769.60
2023-07-15T07:48:07.521Z,48602.44
2023-07-15T07:49:10.685Z,48560.40
2023-07-15T07:50:13.470Z,48432.29
2023-07-15T07:51:16.848Z,48453.30
2023-07-15T07:52:20.343Z,48444.30
2023-07-15T07:53:23.318Z,48707.54
2023-07-15T07:54:26.175Z,48639.48
2023-07-15T07:55:29.166Z,48657.49
2023-07-15T07:56:32.267Z,48631.46
2023-07-15T07:57:35.730Z,48628.46
2023-07-15T07:58:38.396Z,48505.35
2023-07-15T07:59:41.580Z,48547.39
2023-07-15T08:00:44.557Z,48533.38
2023-07-15T08:01:47.533Z,48683.52
2023-07-15T08:02:50.736Z,48563.41
2023-07-15T08:03:53.579Z,48584.42
2023-07-15T08:04:56.563Z,48813.64
2023-07-15T08:05:59.233Z,48687.52
2023-07-15T08:07:02.728Z,48506.35
2023-07-15T08:08:05.910Z,48545.39
2023-07-15T08:09:08.989Z,48415.27
2023-07-15T08:10:11.862Z,48343.21
2023-07-15T08:11:15.008Z,48335.20
2023-07-15T08:12:18.229Z,48502.35
2023-07-15T08:13:21.316Z,48690.52
2023-07-15T08:14:24.277Z,48622.46
2023-07-15T08:15:27.474Z,48606.44
2023-07-15T08:16:30.482Z,48650.48
2023-07-15T08:17:33.442Z,48471.32
2023-07-15T08:18:36.600Z,48651.48
2023-07-15T08:19:39.608Z,48859.69
2023-07-15T08:20:42.687Z,48764.59
2023-07-15T08:21:45.537Z,48713.54
2023-07-15T08:22:48.530Z,48873.70
2023-07-15T08:23:51.278Z,48785.61
2023-07-15T08:24:54.152Z,48476.32
2023-07-15T08:25:56.820Z,48528.37
2023-07-15T08:26:59.595Z,48428.28
2023-07-15T08:28:02.575Z,48384.25
2023-07-15T08:29:05.341Z,48295.17
2023-07-15T08:30:08.011Z,48119.02
2023-07-15T08:31:10.899Z,48295.17
2023-07-15T08:32:13.721Z,48307.18
2023-07-15T08:33:16.490Z,48204.09
2023-07-15T08:34:19.200Z,48271.15
2023-07-15T08:35:21.983Z,48410.27
2023-07-15T08:36:24.770Z,48204.09
2023-07-15T08:37:27.525Z,48124.03
2023-07-15T08:38:30.200Z,48089.00
2023-07-15T08:39:32.971Z,48063.98
2023-07-15T08:40:35.993Z,47958.89
2023-07-15T08:41:39.245Z,47923.87
2023-07-15T08:42:42.042Z,48013.94
2023-07-15T08:43:47.058Z,47874.83
2023-07-15T08:44:50.204Z,47876.84
2023-07-15T08:45:53.212Z,47634.66
2023-07-15T08:46:56.364Z,47778.76
2023-07-15T08:47:59.398Z,47824.80
2023-07-15T08:49:02.533Z,47770.76
2023-07-15T08:50:05.708Z,47714.72
2023-07-15T08:51:08.692Z,47686.70
2023-07-15T08:52:11.556Z,47684.70
2023-07-15T08:53:14.779Z,47630.66
2023-07-15T08:54:17.817Z,47646.67
2023-07-15T08:55:22.257Z,47720.72
2023-07-15T08:56:25.303Z,47778.76
2023-07-15T08:57:28.296Z,47773.76
2023-07-15T08:58:31.261Z,47646.67
2023-07-15T08:59:34.131Z,47641.67
2023-07-15T09:00:37.627Z,47591.63
2023-07-15T09:01:43.374Z,47724.72
2023-07-15T09:02:45.569Z,47617.65
2023-07-15T09:03:48.547Z,47520.59
2023-07-15T09:04:51.713Z,47452.54
2023-07-15T09:05:54.552Z,47486.56
2023-07-15T09:06:57.232Z,47485.56
2023-07-15T09:08:00.308Z,47344.48
2023-07-15T09:09:03.311Z,47197.39
2023-07-15T09:10:06.482Z,47162.37
2023-07-15T09:11:09.343Z,47069.32
2023-07-15T09:12:12.123Z,46997.28
2023-07-15T09:13:14.778Z,46950.26
2023-07-15T09:14:17.550Z,46915.24
2023-07-15T09:15:20.220Z,47011.29
2023-07-15T09:16:23.242Z,46941.25
2023-07-15T09:17:26.693Z,47051.31
2023-07-15T09:18:29.461Z,47056.31
2023-07-15T09:19:32.235Z,47079.32
2023-07-15T09:20:35.240Z,47082.32
2023-07-15T09:21:38.310Z,46995.28
2023-07-15T09:22:41.332Z,47015.29
2023-07-15T09:23:44.475Z,47148.36
2023-07-15T09:24:47.436Z,47062.31
2023-07-15T09:25:50.515Z,46935.25
2023-07-15T09:26:53.794Z,47019.29
2023-07-15T09:27:56.971Z,47053.31
2023-07-15T09:29:00.056Z,46978.27
2023-07-15T09:30:03.142Z,46921.24
2023-07-15T09:31:06.030Z,47027.30
2023-07-15T09:32:09.752Z,47086.33
2023-07-15T09:33:12.805Z,47160.37
2023-07-15T09:34:15.866Z,47127.35
2023-07-15T09:35:18.842Z,47086.33
2023-07-15T09:36:21.818Z,47017.29
2023-07-15T09:37:24.898Z,46858.21
2023-07-15T09:38:27.764Z,46676.12
2023-07-15T09:39:30.749Z,46696.14
2023-07-15T09:40:33.719Z,46545.07
2023-07-15T09:41:36.915Z,46469.04
2023-07-15T09:42:40.095Z,46454.04
2023-07-15T09:43:43.062Z,46488.05
2023-07-15T09:44:45.746Z,46359.00
2023-07-15T09:45:48.789Z,46389.01
2023-07-15T09:46:51.890Z,46351.00
2023-07-15T09:47:55.294Z,46329.99
2023-07-15T09:48:58.257Z,46374.00
2023-07-15T09:50:01.336Z,46251.96
2023-07-15T09:51:04.214Z,46297.98
2023-07-15T09:52:07.204Z,46471.04
2023-07-15T09:53:10.370Z,46285.97
2023-07-15T09:54:13.357Z,46311.98
2023-07-15T09:55:16.218Z,46551.07
2023-07-15T09:56:19.200Z,46639.11
2023-07-15T09:57:22.088Z,46709.14
2023-07-15T09:58:25.411Z,46600.09
2023-07-15T09:59:28.251Z,46677.13
2023-07-15T10:00:31.228Z,46811.19
2023-07-15T10:01:34.410Z,47008.29
2023-07-15T10:02:37.189Z,46942.25
2023-07-15T10:03:40.353Z,46985.27
2023-07-15T10:04:43.271Z,46756.16
2023-07-15T10:05:46.200Z,46737.15
2023-07-15T10:06:48.974Z,46640.11
2023-07-15T10:07:51.638Z,46686.13
2023-07-15T10:08:54.923Z,46653.12
2023-07-15T10:09:57.901Z,46549.07
2023-07-15T10:11:00.888Z,46482.05
2023-07-15T10:12:03.906Z,46354.00
2023-07-15T10:13:06.628Z,46352.00
2023-07-15T10:14:09.617Z,46221.95
2023-07-15T10:15:12.375Z,46335.99
2023-07-15T10:16:15.210Z,46380.01
2023-07-15T10:17:17.926Z,46316.98
2023-07-15T10:18:20.596Z,46299.98
2023-07-15T10:19:26.462Z,46238.96
2023-07-15T10:20:29.113Z,46188.95
2023-07-15T10:21:31.879Z,46262.97
2023-07-15T10:22:34.975Z,46155.93
2023-07-15T10:23:37.833Z,46189.95
2023-07-15T10:24:40.919Z,46202.95
2023-07-15T10:25:44.019Z,46315.98
2023-07-15T10:26:46.663Z,46342.00
2023-07-15T10:27:49.638Z,46355.00
2023-07-15T10:28:52.620Z,46265.97
2023-07-15T10:29:55.898Z,46286.98
2023-07-15T10:31:06.146Z,46261.97
2023-07-15T10:32:03.289Z,46226.95
2023-07-15T10:33:06.310Z,46109.92
2023-07-15T10:34:09.342Z,46018.89
2023-07-15T10:35:12.552Z,46063.91
2023-07-15T10:36:15.398Z,46028.89
2023-07-15T10:37:18.581Z,45935.87
2023-07-15T10:38:21.673Z,45921.87
2023-07-15T10:39:24.639Z,45967.88
2023-07-15T10:40:28.033Z,45857.85
2023-07-15T10:41:31.103Z,45739.83
2023-07-15T10:42:33.778Z,45787.84
2023-07-15T10:43:36.806Z,45861.86
2023-07-15T10:44:40.132Z,45976.88
2023-07-15T10:45:43.746Z,45990.89
2023-07-15T10:46:46.757Z,45989.89
2023-07-15T10:47:49.728Z,46129.93
2023-07-15T10:48:52.761Z,46131.93
2023-07-15T10:49:55.441Z,46073.91
2023-07-15T10:50:58.199Z,46206.95
2023-07-15T10:52:01.077Z,46291.98
2023-07-15T10:53:04.170Z,46229.96
2023-07-15T10:54:06.928Z,46121.92
2023-07-15T10:55:09.709Z,46184.94
2023-07-15T10:56:12.985Z,46108.92
2023-07-15T10:57:16.279Z,46201.95
2023-07-15T10:58:19.069Z,46179.94
2023-07-15T10:59:21.866Z,45865.86
2023-07-15T11:00:24.595Z,45837.85
2023-07-15T11:01:27.508Z,46032.90
2023-07-15T11:02:30.256Z,46025.89
2023-07-15T11:03:33.012Z,46058.90
2023-07-15T11:04:35.837Z,46058.90
2023-07-15T11:05:38.562Z,46018.89
2023-07-15T11:06:41.504Z,45930.87
2023-07-15T11:07:44.514Z,45746.83
2023-07-15T11:08:47.276Z,45693.82
2023-07-15T11:09:50.057Z,45842.85
2023-07-15T11:10:52.823Z,45744.83
2023-07-15T11:11:55.827Z,45841.85
2023-07-15T11:12:58.479Z,45811.84
2023-07-15T11:14:01.132Z,45843.85
2023-07-15T11:15:04.021Z,45777.84
2023-07-15T11:16:06.892Z,45761.83
2023-07-15T11:17:10.163Z,45719.82
2023-07-15T11:18:13.098Z,45664.81
2023-07-15T11:19:16.032Z,45575.80
2023-07-15T11:20:19.004Z,45600.80
2023-07-15T11:21:21.980Z,45641.81
2023-07-15T11:22:24.990Z,45662.81
2023-07-15T11:23:27.984Z,45624.80
2023-07-15T11:24:30.912Z,45593.80
2023-07-15T11:25:33.780Z,45615.80
2023-07-15T11:26:36.868Z,45751.83
2023-07-15T11:27:39.856Z,45735.82
2023-07-15T11:28:42.918Z,45819.84
2023-07-15T11:29:45.904Z,45853.85
2023-07-15T11:30:49.042Z,45720.82
2023-07-15T11:31:51.957Z,45743.83
2023-07-15T11:32:54.734Z,45666.81
2023-07-15T11:33:57.500Z,45657.81
2023-07-15T11:35:02.402Z,45717.82
2023-07-15T11:36:04.579Z,45706.82
2023-07-15T11:37:07.355Z,45659.81
2023-07-15T11:38:10.124Z,45709.82
2023-07-15T11:39:12.893Z,45691.82
2023-07-15T11:40:15.703Z,45750.83
2023-07-15T11:41:18.545Z,45709.82
2023-07-15T11:42:21.312Z,45687.82
2023-07-15T11:43:24.207Z,45582.80
2023-07-15T11:44:26.872Z,45535.79
2023-07-15T11:45:29.639Z,45525.79
2023-07-15T11:46:32.437Z,45434.78
2023-07-15T11:47:35.417Z,45278.76
2023-07-15T11:48:38.670Z,45444.78
2023-07-15T11:49:42.019Z,45371.77
2023-07-15T11:50:45.128Z,45506.79
2023-07-15T11:51:48.107Z,45439.78
2023-07-15T11:52:51.185Z,45653.81
2023-07-15T11:53:54.376Z,45638.81
2023-07-15T11:54:57.350Z,45644.81
2023-07-15T11:56:00.348Z,45642.81
2023-07-15T11:57:03.198Z,45655.81
2023-07-15T11:58:06.074Z,45550.79
2023-07-15T11:59:09.355Z,45563.80
2023-07-15T12:00:12.237Z,45579.80
2023-07-15T12:01:15.334Z,45583.80
2023-07-15T12:02:18.448Z,45625.80
2023-07-15T12:03:21.489Z,45627.80
2023-07-15T12:04:24.605Z,45657.81
2023-07-15T12:05:28.143Z,45803.84
2023-07-15T12:06:31.114Z,45847.85
2023-07-15T12:07:33.865Z,45905.86
2023-07-15T12:08:36.769Z,45910.86
2023-07-15T12:09:40.169Z,45638.81
2023-07-15T12:10:43.127Z,45870.86
2023-07-15T12:11:46.414Z,45661.81
2023-07-15T12:12:49.403Z,45820.84
2023-07-15T12:13:52.261Z,45727.82
2023-07-15T12:14:55.238Z,45632.80
2023-07-15T12:15:58.296Z,45630.80
2023-07-15T12:17:01.725Z,45561.80
2023-07-15T12:18:04.853Z,45609.80
2023-07-15T12:19:10.454Z,45585.80
2023-07-15T12:20:13.297Z,45511.79